Карточка аэропорта URWW

Внимание!
Информация на этой странице в стадии наполнения.
Если вы не увидели какой-то информации, или заметили неточность - пожалуйста сообщите нам!
Спасибо!
Команда RU-STAFF
Название аэропортаГумрак
Название аэропорта (англ.)Gumrak
Превышение482 ft. (146.9 m.)
Координаты48°46.95', 44°20.736'
Высота перехода3000 ft
Эшелон переходаFL40 (QNH >= 1013); FL50 (QNH 977-1012); FL60 (QNH < 977)
Коды ответчика1020-1027
Зона ОрВДРостов-на-Дону РПИ (URRV)
Данные METARURWW 290700Z 29002MPS 9999 BKN008 17/16 Q1010 R24/290060 TEMPO 0300 FG OVC002 RMK OBST OBSC
Проноз погоды (TAF)
NOTAMshow/hide NOTAM
AWOS   TABLE

Информация о ВПП

ВПП Длина ВПП (м.) Покрытие Курс ВПП Частота ILS
242800Асфальтобетон235110.5
062800Асфальтобетон55111.7

Диспетчерские позиции

Позывной Наименование органа УВД Частота
URWW_APPВолгоград-Подход125.3
URWW_TWRВолгоград-Вышка128.0
URWW_GNDВолгоград-Руление119.0



Спутниковое изображение